Aviation Digital Data Service (ADDS)

Output produced by METARs form (0225 UTC 26 July 2017)
found at http://www.aviationweather.gov/adds/metars/
 
KUNV 260215Z AUTO 03003KT 10SM SCT033 OVC050 18/14 A3024 RMK AO2 T01810140
KUNV 260053Z 03006KT 10SM SCT032 BKN050 18/14 A3022
KUNV 252353Z 05006KT 10SM SCT027 BKN040 20/15 A3021
KUNV 252253Z 02006KT 10SM SCT039 BKN060 20/15 A3019
KUNV 252153Z 33005KT 10SM SCT036 BKN060 21/14 A3018
KUNV 252053Z 32005KT 10SM SCT050 BKN060 22/14 A3018
KUNV 251953Z 33005KT 10SM SCT045 OVC050 21/14 A3018
KUNV 251853Z 00000KT 10SM BKN048 OVC055 21/14 A3017
KUNV 251753Z 33008G15KT 10SM SCT030 SCT037 OVC046 20/14 A3016
KUNV 251653Z 33006KT 10SM SCT029 OVC041 21/15 A3015
KUNV 251553Z 33007KT 10SM OVC036 20/14 A3014
KUNV 251453Z 30009KT 10SM BKN026 BKN032 OVC038 19/15 A3013
KUNV 251353Z 31008KT 10SM OVC034 20/16 A3012
KUNV 251253Z 33013KT 10SM -RA SCT015 BKN020 BKN026 17/15 A3012
KUNV 251153Z 27005KT 10SM OVC021 18/14 A3010
KUNV 251053Z 00000KT 10SM OVC021 17/14 A3008
KUNV 250953Z 00000KT 10SM OVC021 17/14 A3006
KUNV 250935Z AUTO 25003KT 10SM OVC021 17/14 A3005 RMK AO2 T01720140
KUNV 250915Z AUTO 24003KT 10SM BKN023 OVC030 17/14 A3005 RMK AO2 T01700141
KUNV 250855Z AUTO 27004KT 10SM SCT021 OVC032 18/14 A3004 RMK AO2 T01750138
KUNV 250835Z AUTO 24003KT 10SM OVC021 17/14 A3004 RMK AO2 T01730137
KUNV 250815Z AUTO 29003KT 10SM BKN023 OVC048 18/14 A3003 RMK AO2 T01750136
KUNV 250755Z AUTO 28008KT 10SM SCT025 OVC048 18/14 A3002 RMK AO2 T01750135
KUNV 250735Z AUTO 26005KT 10SM OVC050 18/14 A3002 RMK AO2 T01750136
KUNV 250715Z AUTO 28007KT 10SM SCT030 OVC050 18/14 A3001 RMK AO2 T01750135
KUNV 250655Z AUTO 28007KT 10SM SCT030 BKN060 18/13 A3001 RMK AO2 T01750134
KUNV 250635Z AUTO 30005KT 10SM SCT030 SCT060 SCT070 17/13 A3002 RMK AO2 T01740133
KUNV 250615Z AUTO 29006KT 10SM SCT030 SCT050 BKN065 18/13 A3001 RMK AO2 T01770132
KUNV 250555Z AUTO 29006KT 10SM BKN030 OVC050 18/13 A3001 RMK AO2 T01800133 10230 20180
KUNV 250535Z AUTO 30005KT 10SM BKN030 OVC050 18/14 A3001 RMK AO2 T01830135
KUNV 250515Z AUTO 28005KT 10SM SCT027 SCT033 OVC050 19/14 A3001 RMK AO2 T01870138
KUNV 250455Z AUTO 28007KT 10SM SCT033 BKN050 BKN065 19/14 A3000 RMK AO2 T01890135
KUNV 250435Z AUTO 27008KT 10SM BKN050 BKN065 BKN090 19/14 A2999 RMK AO2 T01890136
KUNV 250415Z AUTO 28004KT 10SM SCT031 SCT044 OVC050 19/13 A2999 RMK AO2 T01940133
KUNV 250355Z AUTO 30007KT 10SM OVC050 20/13 A2999 RMK AO2 T01950131 402780181
KUNV 250335Z AUTO 29007KT 10SM OVC050 20/14 A2998 RMK AO2 T01990135
KUNV 250315Z AUTO 28005KT 10SM OVC048 20/14 A2998 RMK AO2 T02000135
KUNV 250255Z AUTO 29005KT 10SM OVC050 20/14 A2998 RMK AO2 T02000135
KUNV 250235Z AUTO 31005G15KT 10SM SCT043 OVC050 21/14 A2997 RMK AO2 T02050137
KUNV 250215Z AUTO 29008KT 10SM SCT043 OVC050 21/14 A2996 RMK AO2 T02070138
KUNV 250053Z 31007KT 10SM SCT048 SCT065 22/14 A2992
KUNV 242353Z 32010KT 10SM SCT040 23/15 A2990
KUNV 242253Z 30010G21KT 10SM SCT040 25/16 A2987
KUNV 242153Z 31010G18KT 10SM SCT042 SCT055 BKN075 25/18 A2985
KUNV 242053Z 26009G15KT 10SM SCT050 SCT100 SCT120 26/19 A2984
KUNV 241953Z 24012KT 10SM OVC080 24/19 A2984
KUNV 241853Z 24012KT 10SM OVC090 26/18 A2983
KUNV 241753Z 24010KT 10SM SCT038 BKN100 27/19 A2982
KUNV 241653Z 00000KT 10SM SCT036 SCT047 26/19 A2983
KUNV 241553Z COR 00000KT 10SM SCT022 BKN028 BKN047 24/20 A2984
KUNV 241453Z 20005KT 10SM SCT015 BKN021 OVC027 22/20 A2985